createdAt,value
2024-01-18T00:01:17.502Z,96742.13
2024-01-18T00:03:45.196Z,96739.85
2024-01-18T00:06:12.876Z,96742.21
2024-01-18T00:08:40.594Z,96748.54
2024-01-18T00:11:08.249Z,96745.07
2024-01-18T00:13:35.934Z,96738.02
2024-01-18T00:16:03.555Z,96725.42
2024-01-18T00:18:31.406Z,96716.17
2024-01-18T00:20:59.199Z,96715.72
2024-01-18T00:23:26.857Z,96713.28
2024-01-18T00:25:54.634Z,96702.73
2024-01-18T00:28:22.448Z,96704.56
2024-01-18T00:30:50.060Z,96707.08
2024-01-18T00:33:17.829Z,96703.03
2024-01-18T00:35:45.666Z,96700.86
2024-01-18T00:38:13.383Z,96705.80
2024-01-18T00:40:43.185Z,96706.53
2024-01-18T00:43:11.458Z,96707.14
2024-01-18T00:45:39.251Z,96710.34
2024-01-18T00:48:07.129Z,96711.46
2024-01-18T00:50:34.898Z,96719.48
2024-01-18T00:53:02.578Z,96713.05
2024-01-18T00:55:30.237Z,96711.77
2024-01-18T00:57:57.896Z,96715.51
2024-01-18T01:00:25.584Z,96716.98
2024-01-18T01:02:53.328Z,96708.86
2024-01-18T01:05:20.996Z,96707.23
2024-01-18T01:07:48.622Z,96695.47
2024-01-18T01:10:17.082Z,96698.15
2024-01-18T01:12:45.398Z,96694.16
2024-01-18T01:15:13.195Z,96688.96
2024-01-18T01:17:41.006Z,96692.36
2024-01-18T01:20:11.077Z,96687.48
2024-01-18T01:22:38.819Z,96688.02
2024-01-18T01:25:07.151Z,96682.27
2024-01-18T01:27:34.808Z,96681.32
2024-01-18T01:30:03.153Z,96670.71
2024-01-18T01:32:30.982Z,96673.05
2024-01-18T01:34:58.674Z,96678.70
2024-01-18T01:37:26.346Z,96688.33
2024-01-18T01:39:54.064Z,96696.60
2024-01-18T01:42:21.716Z,96699.42
2024-01-18T01:44:51.302Z,96699.09
2024-01-18T01:47:18.950Z,96698.38
2024-01-18T01:49:46.624Z,96696.29
2024-01-18T01:52:14.426Z,96697.30
2024-01-18T01:54:42.287Z,96695.23
2024-01-18T01:57:09.957Z,96698.91
2024-01-18T01:59:37.598Z,96702.40
2024-01-18T02:02:05.246Z,96705.47
2024-01-18T02:04:33.373Z,96695.81
2024-01-18T02:07:01.038Z,96691.15
2024-01-18T02:09:28.851Z,96690.09
2024-01-18T02:11:56.605Z,96681.14
2024-01-18T02:14:24.244Z,96677.37
2024-01-18T02:16:51.972Z,96676.48
2024-01-18T02:19:19.726Z,96673.92
2024-01-18T02:21:47.489Z,96672.31
2024-01-18T02:24:15.133Z,96671.61
2024-01-18T02:26:42.789Z,96675.89
2024-01-18T02:29:10.492Z,96676.05
2024-01-18T02:31:38.080Z,96669.48
2024-01-18T02:34:05.811Z,96671.73
2024-01-18T02:36:33.649Z,96669.45
2024-01-18T02:39:01.285Z,96665.15
2024-01-18T02:41:28.981Z,96671.14
2024-01-18T02:43:56.634Z,96671.66
2024-01-18T02:46:24.243Z,96676.99
2024-01-18T02:48:51.936Z,96674.39
2024-01-18T02:51:19.739Z,96656.09
2024-01-18T02:53:47.419Z,96657.61
2024-01-18T02:56:15.327Z,96653.13
2024-01-18T02:58:42.951Z,96651.70
2024-01-18T03:01:10.704Z,96652.56
2024-01-18T03:03:38.357Z,96653.95
2024-01-18T03:06:06.156Z,96647.39
2024-01-18T03:08:34.453Z,96651.38
2024-01-18T03:11:02.070Z,96654.30
2024-01-18T03:13:29.749Z,96659.65
2024-01-18T03:15:57.389Z,96661.77
2024-01-18T03:18:25.372Z,96661.91
2024-01-18T03:20:53.049Z,96666.60
2024-01-18T03:23:20.678Z,96669.90
2024-01-18T03:25:48.699Z,96669.57
2024-01-18T03:28:16.323Z,96669.58
2024-01-18T03:30:44.096Z,96669.58
2024-01-18T03:33:12.058Z,96666.70
2024-01-18T03:35:40.349Z,96667.00
2024-01-18T03:38:08.746Z,96664.80
2024-01-18T03:40:36.732Z,96662.75
2024-01-18T03:43:04.412Z,96659.99
2024-01-18T03:45:32.077Z,96654.20
2024-01-18T03:47:59.915Z,96651.91
2024-01-18T03:50:27.593Z,96659.23
2024-01-18T03:52:55.245Z,96660.64
2024-01-18T03:55:22.883Z,96666.91
2024-01-18T03:57:50.508Z,96664.53
2024-01-18T04:00:18.178Z,96667.14
2024-01-18T04:02:45.818Z,96664.03
2024-01-18T04:05:13.561Z,96663.92
2024-01-18T04:07:41.315Z,96662.52
2024-01-18T04:10:11.725Z,96660.86
2024-01-18T04:12:39.516Z,96664.54
2024-01-18T04:15:07.423Z,96667.34
2024-01-18T04:17:35.560Z,96662.37
2024-01-18T04:20:06.888Z,96659.35
2024-01-18T04:22:34.607Z,96657.62
2024-01-18T04:25:02.265Z,96659.40
2024-01-18T04:27:30.004Z,96656.87
2024-01-18T04:29:57.843Z,96658.48
2024-01-18T04:32:25.498Z,96657.97
2024-01-18T04:34:53.136Z,96661.31
2024-01-18T04:37:20.757Z,96656.68
2024-01-18T04:39:48.393Z,96656.92
2024-01-18T04:42:17.793Z,96655.42
2024-01-18T04:44:45.540Z,96655.45
2024-01-18T04:47:13.172Z,96655.47
2024-01-18T04:49:40.815Z,96655.07
2024-01-18T04:52:08.455Z,96660.73
2024-01-18T04:54:36.099Z,96660.95
2024-01-18T04:57:03.810Z,96661.18
2024-01-18T04:59:31.429Z,96661.91
2024-01-18T05:01:59.482Z,96663.63
2024-01-18T05:04:27.311Z,96660.61
2024-01-18T05:06:55.149Z,96660.26
2024-01-18T05:09:22.927Z,96658.41
2024-01-18T05:11:50.532Z,96654.65
2024-01-18T05:14:18.157Z,96657.27
2024-01-18T05:16:51.950Z,96657.09
2024-01-18T05:19:19.698Z,96656.81
2024-01-18T05:21:47.436Z,96659.21
2024-01-18T05:24:15.131Z,96659.11
2024-01-18T05:26:42.748Z,96660.70
2024-01-18T05:29:10.356Z,96660.41
2024-01-18T05:31:38.486Z,96654.70
2024-01-18T05:34:06.286Z,96657.20
2024-01-18T05:36:34.034Z,96656.69
2024-01-18T05:39:01.700Z,96658.47
2024-01-18T05:41:29.342Z,96661.09
2024-01-18T05:43:56.934Z,96663.02
2024-01-18T05:46:24.959Z,96664.55
2024-01-18T05:48:52.744Z,96664.96
2024-01-18T05:51:21.312Z,96664.96
2024-01-18T05:53:48.959Z,96664.33
2024-01-18T05:56:16.554Z,96667.10
2024-01-18T05:58:46.568Z,96668.85
2024-01-18T06:01:14.761Z,96672.42
2024-01-18T06:03:42.816Z,96675.93
2024-01-18T06:06:10.653Z,96680.42
2024-01-18T06:08:38.421Z,96682.18
2024-01-18T06:11:06.017Z,96687.75
2024-01-18T06:13:33.715Z,96692.32
2024-01-18T06:16:01.354Z,96693.23
2024-01-18T06:18:29.146Z,96696.80
2024-01-18T06:20:56.940Z,96698.71
2024-01-18T06:23:24.566Z,96695.18
2024-01-18T06:25:52.316Z,96695.71
2024-01-18T06:28:19.975Z,96697.98
2024-01-18T06:30:47.737Z,96700.39
2024-01-18T06:33:15.635Z,96702.92
2024-01-18T06:35:43.520Z,96704.63
2024-01-18T06:38:11.157Z,96700.19
2024-01-18T06:40:41.234Z,96697.96
2024-01-18T06:43:10.231Z,96702.10
2024-01-18T06:45:38.016Z,96704.49
2024-01-18T06:48:06.081Z,96705.23
2024-01-18T06:50:33.938Z,96701.60
2024-01-18T06:53:03.422Z,96703.86
2024-01-18T06:55:31.090Z,96709.39
2024-01-18T06:58:03.754Z,96717.50
2024-01-18T07:00:32.123Z,96715.77
2024-01-18T07:03:00.086Z,96715.84
2024-01-18T07:05:27.830Z,96715.64
2024-01-18T07:07:55.515Z,96716.55
2024-01-18T07:10:23.812Z,96718.83
2024-01-18T07:12:51.470Z,96715.61
2024-01-18T07:15:21.114Z,96719.36
2024-01-18T07:17:48.822Z,96721.67
2024-01-18T07:20:16.540Z,96723.75
2024-01-18T07:22:44.199Z,96726.88
2024-01-18T07:25:14.148Z,96726.89
2024-01-18T07:27:41.875Z,96720.74
2024-01-18T07:30:09.580Z,96721.39
2024-01-18T07:32:37.427Z,96715.77
2024-01-18T07:35:05.554Z,96721.29
2024-01-18T07:37:33.522Z,96723.19
2024-01-18T07:40:01.665Z,96726.98
2024-01-18T07:42:29.501Z,96727.85
2024-01-18T07:44:57.106Z,96728.84
2024-01-18T07:47:24.838Z,96732.54
2024-01-18T07:49:52.623Z,96733.09
2024-01-18T07:52:20.269Z,96734.30
2024-01-18T07:54:50.694Z,96734.52
2024-01-18T07:57:18.473Z,96732.27
2024-01-18T07:59:46.167Z,96737.14
2024-01-18T08:02:13.812Z,96738.63
2024-01-18T08:04:41.526Z,96737.08
2024-01-18T08:07:09.262Z,96736.89
2024-01-18T08:09:39.545Z,96737.08
2024-01-18T08:12:07.468Z,96738.94
2024-01-18T08:14:35.189Z,96742.74
2024-01-18T08:17:02.793Z,96746.52
2024-01-18T08:19:30.521Z,96748.92
2024-01-18T08:21:59.129Z,96757.20
2024-01-18T08:24:27.114Z,96757.21
2024-01-18T08:26:54.781Z,96760.64
2024-01-18T08:29:22.410Z,96760.52
2024-01-18T08:31:50.180Z,96765.88
2024-01-18T08:34:17.786Z,96769.55
2024-01-18T08:36:45.456Z,96768.00
2024-01-18T08:39:13.256Z,96767.86
2024-01-18T08:41:40.866Z,96770.11
2024-01-18T08:44:08.474Z,96774.30
2024-01-18T08:46:36.154Z,96778.77
2024-01-18T08:49:03.855Z,96783.67
2024-01-18T08:51:31.709Z,96785.05
2024-01-18T08:53:59.504Z,96788.36
2024-01-18T08:56:31.052Z,96791.81
2024-01-18T08:58:59.358Z,96794.10
2024-01-18T09:01:27.027Z,96795.13
2024-01-18T09:03:54.756Z,96800.30
2024-01-18T09:06:22.543Z,96805.14
2024-01-18T09:08:50.181Z,96808.10
2024-01-18T09:11:17.849Z,96809.75
2024-01-18T09:13:45.473Z,96809.98
2024-01-18T09:16:13.159Z,96807.23
2024-01-18T09:18:50.172Z,96811.37
2024-01-18T09:21:23.997Z,96808.92
2024-01-18T09:23:51.634Z,96815.70
2024-01-18T09:26:19.224Z,96821.47
2024-01-18T09:28:46.845Z,96820.72
2024-01-18T09:31:23.854Z,96822.30
2024-01-18T09:33:59.060Z,96827.00
2024-01-18T09:36:26.744Z,96832.20
2024-01-18T09:38:54.504Z,96836.70
2024-01-18T09:41:22.202Z,96835.92
2024-01-18T09:43:50.227Z,96842.14
2024-01-18T09:46:17.851Z,96841.66
2024-01-18T09:48:45.730Z,96845.83
2024-01-18T09:51:13.582Z,96849.83
2024-01-18T09:53:45.606Z,96852.25
2024-01-18T09:56:13.308Z,96858.35
2024-01-18T09:58:41.135Z,96857.30
2024-01-18T10:01:08.928Z,96860.27
2024-01-18T10:03:36.739Z,96861.83
2024-01-18T10:06:04.500Z,96864.44
2024-01-18T10:08:32.406Z,96869.37
2024-01-18T10:11:00.011Z,96865.65
2024-01-18T10:13:28.101Z,96867.19
2024-01-18T10:15:55.731Z,96868.95
2024-01-18T10:18:23.400Z,96871.05
2024-01-18T10:20:51.133Z,96873.77
2024-01-18T10:23:18.718Z,96881.83
2024-01-18T10:25:47.022Z,96885.05
2024-01-18T10:28:15.928Z,96884.38
2024-01-18T10:30:43.656Z,96883.70
2024-01-18T10:33:13.314Z,96890.58
2024-01-18T10:35:41.049Z,96897.30
2024-01-18T10:38:08.838Z,96899.73
2024-01-18T10:40:39.341Z,96900.93
2024-01-18T10:43:07.034Z,96898.80
2024-01-18T10:45:34.710Z,96895.37
2024-01-18T10:48:02.493Z,96894.67
2024-01-18T10:50:30.232Z,96889.42
2024-01-18T10:52:57.837Z,96890.34
2024-01-18T10:55:25.484Z,96896.02
2024-01-18T10:57:53.475Z,96895.52
2024-01-18T11:00:21.359Z,96895.35
2024-01-18T11:02:49.089Z,96901.38
2024-01-18T11:05:20.164Z,96905.55
2024-01-18T11:07:48.087Z,96907.39
2024-01-18T11:10:15.829Z,96906.91
2024-01-18T11:12:46.114Z,96908.37
2024-01-18T11:15:14.825Z,96908.73
2024-01-18T11:17:42.585Z,96908.23
2024-01-18T11:20:10.786Z,96911.09
2024-01-18T11:22:40.364Z,96908.52
2024-01-18T11:25:08.412Z,96913.21
2024-01-18T11:27:36.131Z,96911.85
2024-01-18T11:30:04.655Z,96912.49
2024-01-18T11:32:32.314Z,96909.83
2024-01-18T11:34:59.949Z,96911.03
2024-01-18T11:37:27.953Z,96910.26
2024-01-18T11:39:55.689Z,96906.65
2024-01-18T11:42:23.349Z,96906.72
2024-01-18T11:44:51.868Z,96905.31
2024-01-18T11:47:19.943Z,96906.80
2024-01-18T11:49:47.673Z,96909.42
2024-01-18T11:52:15.277Z,96909.45
2024-01-18T11:54:42.943Z,96910.00
2024-01-18T11:57:14.262Z,96909.98
2024-01-18T11:59:42.869Z,96915.23
2024-01-18T12:02:10.530Z,96914.59
2024-01-18T12:04:38.223Z,96916.86
2024-01-18T12:07:06.032Z,96915.73
2024-01-18T12:09:33.799Z,96920.95
2024-01-18T12:12:01.906Z,96924.70
2024-01-18T12:14:29.873Z,96924.27
2024-01-18T12:16:58.118Z,96930.02
2024-01-18T12:19:25.747Z,96934.06
2024-01-18T12:21:53.502Z,96937.80
2024-01-18T12:24:21.489Z,96940.30
2024-01-18T12:26:49.092Z,96939.98
2024-01-18T12:29:16.720Z,96939.58
2024-01-18T12:31:44.342Z,96942.92
2024-01-18T12:34:12.038Z,96945.19
2024-01-18T12:36:40.273Z,96949.71
2024-01-18T12:39:08.039Z,96948.35
2024-01-18T12:41:35.698Z,96946.39
2024-01-18T12:44:03.372Z,96947.48
2024-01-18T12:46:30.965Z,96947.59
2024-01-18T12:48:58.682Z,96952.80
2024-01-18T12:51:26.332Z,96953.92
2024-01-18T12:53:53.960Z,96949.61
2024-01-18T12:56:21.593Z,96944.52
2024-01-18T12:58:49.258Z,96944.16
2024-01-18T13:01:16.951Z,96949.77
2024-01-18T13:03:44.684Z,96951.77
2024-01-18T13:06:14.085Z,96955.00
2024-01-18T13:08:41.763Z,96958.39
2024-01-18T13:11:09.511Z,96962.01
2024-01-18T13:13:37.173Z,96971.18
2024-01-18T13:16:05.041Z,96976.66
2024-01-18T13:18:32.940Z,96983.12
2024-01-18T13:21:00.695Z,96988.41
2024-01-18T13:23:28.309Z,96990.76
2024-01-18T13:25:55.950Z,96994.05
2024-01-18T13:28:23.596Z,97001.36
2024-01-18T13:30:51.494Z,97009.91
2024-01-18T13:33:19.278Z,97006.55
2024-01-18T13:35:46.975Z,97004.92
2024-01-18T13:38:16.950Z,97008.29
2024-01-18T13:40:44.596Z,97014.30
2024-01-18T13:43:12.205Z,97015.22
2024-01-18T13:45:39.846Z,97022.67
2024-01-18T13:48:08.400Z,97025.83
2024-01-18T13:50:36.156Z,97030.30
2024-01-18T13:53:05.142Z,97030.47
2024-01-18T13:55:32.795Z,97032.51
2024-01-18T13:58:01.044Z,97034.08
2024-01-18T14:00:29.380Z,97035.17
2024-01-18T14:02:57.125Z,97042.12
2024-01-18T14:05:24.825Z,97046.61
2024-01-18T14:07:52.664Z,97044.78
2024-01-18T14:10:20.303Z,97038.89
2024-01-18T14:12:47.950Z,97035.58
2024-01-18T14:15:15.649Z,97038.53
2024-01-18T14:17:43.407Z,97044.70
2024-01-18T14:20:11.135Z,97051.60
2024-01-18T14:22:38.922Z,97051.05
2024-01-18T14:25:07.245Z,97054.58
2024-01-18T14:27:34.881Z,97056.35
2024-01-18T14:30:02.507Z,97053.76
2024-01-18T14:32:31.008Z,97053.73
2024-01-18T14:34:58.860Z,97052.38
2024-01-18T14:37:26.597Z,97052.35
2024-01-18T14:39:54.255Z,97053.97
2024-01-18T14:42:22.053Z,97054.48
2024-01-18T14:44:49.812Z,97064.14
2024-01-18T14:47:17.794Z,97062.82
2024-01-18T14:49:45.519Z,97064.29
2024-01-18T14:52:13.314Z,97064.60
2024-01-18T14:54:41.006Z,97061.58
2024-01-18T14:57:09.144Z,97063.02
2024-01-18T14:59:36.763Z,97062.73
2024-01-18T15:02:06.004Z,97061.60
2024-01-18T15:04:34.329Z,97069.02
2024-01-18T15:07:02.158Z,97064.59
2024-01-18T15:09:29.978Z,97070.23
2024-01-18T15:11:57.623Z,97066.71
2024-01-18T15:14:25.248Z,97063.23
2024-01-18T15:16:52.894Z,97063.05
2024-01-18T15:19:20.663Z,97066.47
2024-01-18T15:21:48.549Z,97067.34
2024-01-18T15:24:16.207Z,97070.62
2024-01-18T15:26:44.091Z,97083.52
2024-01-18T15:29:11.916Z,97090.48
2024-01-18T15:31:39.544Z,97096.46
2024-01-18T15:34:08.255Z,97101.60
2024-01-18T15:36:36.048Z,97101.19
2024-01-18T15:39:04.827Z,97106.91
2024-01-18T15:41:33.379Z,97112.04
2024-01-18T15:44:01.240Z,97107.03
2024-01-18T15:46:28.947Z,97099.98
2024-01-18T15:48:59.314Z,97098.22
2024-01-18T15:51:27.390Z,97092.31
2024-01-18T15:53:55.083Z,97088.80
2024-01-18T15:56:22.739Z,97086.48
2024-01-18T15:58:50.395Z,97089.89
2024-01-18T16:01:18.083Z,97094.56
2024-01-18T16:03:45.798Z,97100.77
2024-01-18T16:06:13.477Z,97102.65
2024-01-18T16:08:42.069Z,97096.09
2024-01-18T16:11:10.146Z,97095.36
2024-01-18T16:13:37.770Z,97102.61
2024-01-18T16:16:05.508Z,97107.34
2024-01-18T16:18:33.387Z,97107.42
2024-01-18T16:21:01.293Z,97108.16
2024-01-18T16:23:29.590Z,97106.45
2024-01-18T16:25:57.532Z,97105.76
2024-01-18T16:28:25.193Z,97099.64
2024-01-18T16:30:52.854Z,97095.58
2024-01-18T16:33:20.857Z,97090.58
2024-01-18T16:35:49.842Z,97091.04
2024-01-18T16:38:17.485Z,97103.61
2024-01-18T16:40:45.184Z,97113.14
2024-01-18T16:43:12.810Z,97110.66
2024-01-18T16:45:40.712Z,97113.69
2024-01-18T16:48:08.594Z,97109.80
2024-01-18T16:50:36.605Z,97106.16
2024-01-18T16:53:04.513Z,97101.30
2024-01-18T16:55:34.305Z,97095.17
2024-01-18T16:58:02.045Z,97095.80
2024-01-18T17:00:29.904Z,97099.39
2024-01-18T17:02:57.596Z,97107.83
2024-01-18T17:05:25.867Z,97107.42
2024-01-18T17:07:53.649Z,97103.60
2024-01-18T17:10:21.280Z,97099.45
2024-01-18T17:12:48.907Z,97095.41
2024-01-18T17:15:16.542Z,97094.52
2024-01-18T17:17:44.251Z,97099.31
2024-01-18T17:20:11.916Z,97113.43
2024-01-18T17:22:39.602Z,97119.69
2024-01-18T17:25:07.267Z,97115.26
2024-01-18T17:27:35.545Z,97115.58
2024-01-18T17:30:03.315Z,97130.38
2024-01-18T17:32:31.026Z,97138.52
2024-01-18T17:34:58.858Z,97140.46
2024-01-18T17:37:26.534Z,97138.77
2024-01-18T17:39:54.155Z,97138.94
2024-01-18T17:42:21.767Z,97134.05
2024-01-18T17:44:49.472Z,97124.19
2024-01-18T17:47:20.399Z,97127.08
2024-01-18T17:49:48.524Z,97126.54
2024-01-18T17:52:16.336Z,97129.95
2024-01-18T17:54:43.965Z,97130.12
2024-01-18T17:57:12.093Z,97136.08
2024-01-18T17:59:39.794Z,97148.61
2024-01-18T18:02:08.333Z,97169.04
2024-01-18T18:04:36.599Z,97178.46
2024-01-18T18:07:04.238Z,97179.60
2024-01-18T18:09:31.851Z,97182.80
2024-01-18T18:11:59.532Z,97181.35
2024-01-18T18:14:31.287Z,97182.73
2024-01-18T18:17:00.419Z,97187.39
2024-01-18T18:19:28.030Z,97193.62
2024-01-18T18:21:56.127Z,97208.98
2024-01-18T18:24:23.759Z,97213.34
2024-01-18T18:26:51.527Z,97224.77
2024-01-18T18:29:19.309Z,97228.55
2024-01-18T18:31:46.935Z,97237.67
2024-01-18T18:34:20.656Z,97245.77
2024-01-18T18:36:54.409Z,97248.73
2024-01-18T18:39:22.137Z,97263.73
2024-01-18T18:41:49.865Z,97273.02
2024-01-18T18:44:17.546Z,97270.80
2024-01-18T18:46:45.181Z,97280.42
2024-01-18T18:49:12.870Z,97286.96
2024-01-18T18:51:40.485Z,97288.86
2024-01-18T18:54:08.136Z,97288.88
2024-01-18T18:56:35.797Z,97295.76
2024-01-18T18:59:07.521Z,97302.64
2024-01-18T19:01:35.506Z,97306.41
2024-01-18T19:04:03.175Z,97312.43
2024-01-18T19:06:31.132Z,97314.67
2024-01-18T19:08:58.792Z,97321.89
2024-01-18T19:11:26.434Z,97322.06
2024-01-18T19:13:54.933Z,97327.04
2024-01-18T19:16:22.639Z,97335.11
2024-01-18T19:18:50.371Z,97349.52
2024-01-18T19:21:18.133Z,97359.66
2024-01-18T19:23:45.803Z,97365.84
2024-01-18T19:26:13.461Z,97371.85
2024-01-18T19:28:41.123Z,97374.95
2024-01-18T19:31:08.729Z,97384.55
2024-01-18T19:33:36.321Z,97392.12
2024-01-18T19:36:03.973Z,97402.06
2024-01-18T19:38:31.603Z,97413.41
2024-01-18T19:40:59.381Z,97412.55
2024-01-18T19:43:27.032Z,97413.23
2024-01-18T19:45:59.371Z,97421.48
2024-01-18T19:48:27.115Z,97427.31
2024-01-18T19:50:54.919Z,97439.16
2024-01-18T19:53:22.815Z,97455.98
2024-01-18T19:55:53.216Z,97465.59
2024-01-18T19:58:20.854Z,97466.44
2024-01-18T20:00:48.556Z,97471.23
2024-01-18T20:03:16.947Z,97479.81
2024-01-18T20:05:45.715Z,97492.84
2024-01-18T20:08:13.642Z,97498.52
2024-01-18T20:10:41.267Z,97506.23
2024-01-18T20:13:09.464Z,97511.88
2024-01-18T20:15:37.087Z,97518.58
2024-01-18T20:18:04.852Z,97524.91
2024-01-18T20:20:32.653Z,97530.76
2024-01-18T20:23:01.743Z,97542.94
2024-01-18T20:25:29.702Z,97545.01
2024-01-18T20:27:58.492Z,97551.71
2024-01-18T20:30:29.999Z,97556.85
2024-01-18T20:32:57.848Z,97563.20
2024-01-18T20:35:25.858Z,97566.10
2024-01-18T20:37:53.712Z,97573.47
2024-01-18T20:40:26.947Z,97582.73
2024-01-18T20:42:55.192Z,97585.13
2024-01-18T20:45:23.057Z,97588.20
2024-01-18T20:47:50.752Z,97600.55
2024-01-18T20:50:19.221Z,97606.90
2024-01-18T20:52:46.834Z,97608.63
2024-01-18T20:55:14.786Z,97612.60
2024-01-18T20:57:42.476Z,97624.25
2024-01-18T21:00:15.525Z,97635.73
2024-01-18T21:02:46.536Z,97640.99
2024-01-18T21:05:14.411Z,97652.29
2024-01-18T21:07:42.003Z,97655.19
2024-01-18T21:10:13.065Z,97661.05
2024-01-18T21:12:41.755Z,97669.45
2024-01-18T21:15:09.363Z,97676.25
2024-01-18T21:17:40.253Z,97685.95
2024-01-18T21:20:09.073Z,97692.39
2024-01-18T21:22:36.727Z,97698.86
2024-01-18T21:25:04.309Z,97699.53
2024-01-18T21:27:31.897Z,97710.14
2024-01-18T21:29:59.571Z,97718.33
2024-01-18T21:32:27.246Z,97733.33
2024-01-18T21:34:54.956Z,97742.52
2024-01-18T21:37:22.689Z,97753.43
2024-01-18T21:39:50.265Z,97757.70
2024-01-18T21:42:20.865Z,97765.08
2024-01-18T21:44:49.475Z,97776.92
2024-01-18T21:47:17.918Z,97779.99
2024-01-18T21:49:45.941Z,97783.91
2024-01-18T21:52:13.970Z,97800.53
2024-01-18T21:54:41.650Z,97815.07
2024-01-18T21:57:09.310Z,97820.89
2024-01-18T21:59:42.135Z,97836.65
2024-01-18T22:02:11.748Z,97837.80
2024-01-18T22:04:39.831Z,97838.73
2024-01-18T22:07:07.672Z,97841.77
2024-01-18T22:09:41.781Z,97845.52
2024-01-18T22:12:11.071Z,97855.74
2024-01-18T22:14:38.948Z,97859.84
2024-01-18T22:17:06.818Z,97853.55
2024-01-18T22:19:43.171Z,97865.70
2024-01-18T22:22:19.438Z,97873.20
2024-01-18T22:24:47.230Z,97876.95
2024-01-18T22:27:15.171Z,97880.38
2024-01-18T22:29:42.989Z,97888.45
2024-01-18T22:32:13.846Z,97898.06
2024-01-18T22:34:42.674Z,97903.51
2024-01-18T22:37:10.280Z,97909.91
2024-01-18T22:39:37.901Z,97911.20
2024-01-18T22:42:05.517Z,97915.19
2024-01-18T22:44:33.164Z,97931.50
2024-01-18T22:47:00.881Z,97942.96
2024-01-18T22:49:28.644Z,97950.02
2024-01-18T22:51:56.597Z,97951.52
2024-01-18T22:54:24.268Z,97963.95
2024-01-18T22:56:52.044Z,97972.43
2024-01-18T22:59:19.814Z,97981.09
2024-01-18T23:01:48.471Z,97992.18
2024-01-18T23:04:16.251Z,97987.21
2024-01-18T23:06:44.029Z,97991.90
2024-01-18T23:09:12.066Z,97999.38
2024-01-18T23:11:41.227Z,98006.73
2024-01-18T23:14:09.124Z,98012.91
2024-01-18T23:16:36.885Z,98021.09
2024-01-18T23:19:04.854Z,98031.54
2024-01-18T23:21:32.735Z,98040.92
2024-01-18T23:24:00.595Z,98048.23
2024-01-18T23:26:28.566Z,98053.25
2024-01-18T23:28:56.336Z,98043.38
2024-01-18T23:31:24.087Z,98035.55
2024-01-18T23:33:52.694Z,98043.23
2024-01-18T23:36:20.662Z,98056.70
2024-01-18T23:38:48.504Z,98069.13
2024-01-18T23:41:16.292Z,98080.68
2024-01-18T23:43:43.930Z,98097.96
2024-01-18T23:46:11.598Z,98108.73
2024-01-18T23:48:39.548Z,98112.88
2024-01-18T23:51:07.161Z,98113.58
2024-01-18T23:53:34.944Z,98122.86
2024-01-18T23:56:02.594Z,98127.93
2024-01-18T23:58:30.197Z,98131.22
